sensor_id;sensor_type;location;lat;lon;timestamp;P1;durP1;ratioP1;P2;durP2;ratioP2
2712;SDS011;1366;47.988;7.856;2023-01-23T05:01:19;6.50;;;5.90;;
2712;SDS011;1366;47.988;7.856;2023-01-23T05:03:47;7.90;;;6.30;;
2712;SDS011;1366;47.988;7.856;2023-01-23T05:06:14;6.00;;;5.40;;
2712;SDS011;1366;47.988;7.856;2023-01-23T05:08:40;5.40;;;4.90;;
2712;SDS011;1366;47.988;7.856;2023-01-23T05:11:06;5.03;;;4.43;;
2712;SDS011;1366;47.988;7.856;2023-01-23T05:13:32;4.67;;;4.17;;
2712;SDS011;1366;47.988;7.856;2023-01-23T05:15:58;5.07;;;4.57;;
2712;SDS011;1366;47.988;7.856;2023-01-23T05:18:24;5.60;;;4.70;;
2712;SDS011;1366;47.988;7.856;2023-01-23T05:20:50;4.47;;;3.90;;
2712;SDS011;1366;47.988;7.856;2023-01-23T05:23:17;4.60;;;4.20;;
2712;SDS011;1366;47.988;7.856;2023-01-23T05:25:43;4.30;;;3.90;;
2712;SDS011;1366;47.988;7.856;2023-01-23T05:28:09;4.80;;;4.30;;
2712;SDS011;1366;47.988;7.856;2023-01-23T05:30:35;4.97;;;4.47;;
2712;SDS011;1366;47.988;7.856;2023-01-23T05:33:01;7.93;;;6.10;;
2712;SDS011;1366;47.988;7.856;2023-01-23T05:35:27;6.97;;;6.13;;
2712;SDS011;1366;47.988;7.856;2023-01-23T05:37:53;6.77;;;6.10;;
2712;SDS011;1366;47.988;7.856;2023-01-23T05:40:19;9.03;;;7.13;;
2712;SDS011;1366;47.988;7.856;2023-01-23T05:42:46;10.10;;;8.20;;
2712;SDS011;1366;47.988;7.856;2023-01-23T05:45:12;9.83;;;8.57;;
2712;SDS011;1366;47.988;7.856;2023-01-23T05:47:38;8.10;;;6.77;;
2712;SDS011;1366;47.988;7.856;2023-01-23T05:50:06;7.83;;;7.03;;
2712;SDS011;1366;47.988;7.856;2023-01-23T05:52:33;6.87;;;6.20;;
2712;SDS011;1366;47.988;7.856;2023-01-23T05:54:59;7.70;;;6.67;;
2712;SDS011;1366;47.988;7.856;2023-01-23T05:57:25;7.53;;;6.40;;
2712;SDS011;1366;47.988;7.856;2023-01-23T05:59:51;8.00;;;6.50;;
2712;SDS011;1366;47.988;7.856;2023-01-23T06:02:17;8.00;;;6.57;;
2712;SDS011;1366;47.988;7.856;2023-01-23T06:04:45;9.20;;;7.87;;
2712;SDS011;1366;47.988;7.856;2023-01-23T06:07:12;7.10;;;6.40;;
2712;SDS011;1366;47.988;7.856;2023-01-23T06:09:38;7.60;;;6.33;;
2712;SDS011;1366;47.988;7.856;2023-01-23T06:12:05;8.03;;;6.10;;
2712;SDS011;1366;47.988;7.856;2023-01-23T06:14:31;6.77;;;6.17;;
2712;SDS011;1366;47.988;7.856;2023-01-23T06:16:57;6.63;;;5.77;;
2712;SDS011;1366;47.988;7.856;2023-01-23T06:19:23;9.77;;;6.60;;
2712;SDS011;1366;47.988;7.856;2023-01-23T06:21:49;6.37;;;5.70;;
2712;SDS011;1366;47.988;7.856;2023-01-23T06:24:15;5.63;;;5.10;;
2712;SDS011;1366;47.988;7.856;2023-01-23T06:26:41;6.23;;;5.07;;
2712;SDS011;1366;47.988;7.856;2023-01-23T06:29:07;5.60;;;5.10;;
2712;SDS011;1366;47.988;7.856;2023-01-23T06:31:33;5.83;;;5.20;;
2712;SDS011;1366;47.988;7.856;2023-01-23T06:34:00;6.93;;;5.73;;
2712;SDS011;1366;47.988;7.856;2023-01-23T06:36:26;5.00;;;4.50;;
2712;SDS011;1366;47.988;7.856;2023-01-23T06:38:52;4.87;;;4.37;;
2712;SDS011;1366;47.988;7.856;2023-01-23T06:41:18;5.50;;;4.10;;
2712;SDS011;1366;47.988;7.856;2023-01-23T06:43:44;3.97;;;3.67;;
2712;SDS011;1366;47.988;7.856;2023-01-23T06:46:10;4.50;;;4.10;;
2712;SDS011;1366;47.988;7.856;2023-01-23T06:48:37;5.17;;;4.67;;
2712;SDS011;1366;47.988;7.856;2023-01-23T06:51:03;6.13;;;3.93;;
2712;SDS011;1366;47.988;7.856;2023-01-23T06:53:30;3.90;;;3.50;;
2712;SDS011;1366;47.988;7.856;2023-01-23T06:55:59;4.30;;;3.90;;
2712;SDS011;1366;47.988;7.856;2023-01-23T06:58:25;4.30;;;3.40;;
2712;SDS011;1366;47.988;7.856;2023-01-23T07:00:53;3.53;;;3.23;;
2712;SDS011;1366;47.988;7.856;2023-01-23T07:03:19;3.17;;;2.90;;
2712;SDS011;1366;47.988;7.856;2023-01-23T07:05:45;4.83;;;3.77;;
2712;SDS011;1366;47.988;7.856;2023-01-23T07:08:11;4.20;;;3.80;;
2712;SDS011;1366;47.988;7.856;2023-01-23T07:10:37;4.33;;;3.93;;
2712;SDS011;1366;47.988;7.856;2023-01-23T07:13:07;5.33;;;3.60;;
2712;SDS011;1366;47.988;7.856;2023-01-23T07:15:34;6.93;;;3.90;;
2712;SDS011;1366;47.988;7.856;2023-01-23T07:18:00;3.57;;;3.27;;
2712;SDS011;1366;47.988;7.856;2023-01-23T07:20:26;4.20;;;3.87;;
2712;SDS011;1366;47.988;7.856;2023-01-23T07:22:53;4.77;;;3.70;;
2712;SDS011;1366;47.988;7.856;2023-01-23T07:25:19;4.33;;;3.93;;
2712;SDS011;1366;47.988;7.856;2023-01-23T07:27:46;5.03;;;3.90;;
2712;SDS011;1366;47.988;7.856;2023-01-23T07:30:12;4.40;;;4.00;;
2712;SDS011;1366;47.988;7.856;2023-01-23T07:32:38;3.93;;;3.63;;
2712;SDS011;1366;47.988;7.856;2023-01-23T07:35:04;4.90;;;3.43;;
2712;SDS011;1366;47.988;7.856;2023-01-23T07:37:30;3.77;;;3.37;;
2712;SDS011;1366;47.988;7.856;2023-01-23T07:39:56;4.23;;;3.20;;
2712;SDS011;1366;47.988;7.856;2023-01-23T07:42:23;5.03;;;3.80;;
2712;SDS011;1366;47.988;7.856;2023-01-23T07:44:49;3.40;;;3.20;;
2712;SDS011;1366;47.988;7.856;2023-01-23T07:47:15;3.57;;;3.37;;
2712;SDS011;1366;47.988;7.856;2023-01-23T07:49:41;4.03;;;3.40;;
2712;SDS011;1366;47.988;7.856;2023-01-23T07:52:07;4.13;;;2.80;;
2712;SDS011;1366;47.988;7.856;2023-01-23T07:54:33;3.87;;;3.10;;
2712;SDS011;1366;47.988;7.856;2023-01-23T07:56:59;3.90;;;3.60;;
2712;SDS011;1366;47.988;7.856;2023-01-23T07:59:25;10.47;;;5.83;;
2712;SDS011;1366;47.988;7.856;2023-01-23T08:01:51;8.60;;;7.33;;
2712;SDS011;1366;47.988;7.856;2023-01-23T08:04:17;5.07;;;4.10;;
2712;SDS011;1366;47.988;7.856;2023-01-23T08:06:44;3.30;;;3.00;;
2712;SDS011;1366;47.988;7.856;2023-01-23T08:09:10;3.40;;;3.10;;
2712;SDS011;1366;47.988;7.856;2023-01-23T08:11:37;3.30;;;3.00;;
2712;SDS011;1366;47.988;7.856;2023-01-23T08:14:03;3.83;;;3.47;;
2712;SDS011;1366;47.988;7.856;2023-01-23T08:16:29;3.90;;;3.47;;
2712;SDS011;1366;47.988;7.856;2023-01-23T08:18:55;54.50;;;22.40;;
2712;SDS011;1366;47.988;7.856;2023-01-23T08:21:21;3.23;;;3.03;;
2712;SDS011;1366;47.988;7.856;2023-01-23T08:23:47;3.93;;;3.63;;
2712;SDS011;1366;47.988;7.856;2023-01-23T08:26:14;4.00;;;3.00;;
2712;SDS011;1366;47.988;7.856;2023-01-23T08:28:43;6.73;;;5.27;;
2712;SDS011;1366;47.988;7.856;2023-01-23T08:31:10;3.10;;;2.90;;
2712;SDS011;1366;47.988;7.856;2023-01-23T08:33:37;3.00;;;2.80;;
2712;SDS011;1366;47.988;7.856;2023-01-23T08:36:03;3.23;;;2.80;;
2712;SDS011;1366;47.988;7.856;2023-01-23T08:38:30;3.10;;;2.90;;
2712;SDS011;1366;47.988;7.856;2023-01-23T08:41:00;3.63;;;3.17;;
2712;SDS011;1366;47.988;7.856;2023-01-23T08:43:27;3.23;;;2.93;;
2712;SDS011;1366;47.988;7.856;2023-01-23T08:45:54;3.37;;;3.10;;
2712;SDS011;1366;47.988;7.856;2023-01-23T08:48:21;3.27;;;2.97;;
2712;SDS011;1366;47.988;7.856;2023-01-23T08:50:48;3.33;;;3.03;;
2712;SDS011;1366;47.988;7.856;2023-01-23T08:53:14;3.53;;;3.07;;
2712;SDS011;1366;47.988;7.856;2023-01-23T08:55:41;5.03;;;3.57;;
2712;SDS011;1366;47.988;7.856;2023-01-23T08:58:08;3.20;;;2.90;;
2712;SDS011;1366;47.988;7.856;2023-01-23T09:00:36;3.43;;;3.13;;
2712;SDS011;1366;47.988;7.856;2023-01-23T09:03:03;3.40;;;3.10;;
2712;SDS011;1366;47.988;7.856;2023-01-23T09:05:29;4.47;;;3.20;;
2712;SDS011;1366;47.988;7.856;2023-01-23T09:07:56;3.80;;;3.50;;
2712;SDS011;1366;47.988;7.856;2023-01-23T09:10:22;13.27;;;12.07;;
2712;SDS011;1366;47.988;7.856;2023-01-23T09:12:52;77.53;;;43.93;;
2712;SDS011;1366;47.988;7.856;2023-01-23T09:15:19;55.23;;;39.00;;
2712;SDS011;1366;47.988;7.856;2023-01-23T09:17:45;18.80;;;12.57;;
2712;SDS011;1366;47.988;7.856;2023-01-23T09:20:11;4.07;;;3.67;;
2712;SDS011;1366;47.988;7.856;2023-01-23T09:22:37;4.80;;;3.67;;
2712;SDS011;1366;47.988;7.856;2023-01-23T09:25:03;4.73;;;3.73;;
2712;SDS011;1366;47.988;7.856;2023-01-23T09:27:30;12.33;;;11.10;;
2712;SDS011;1366;47.988;7.856;2023-01-23T09:29:56;32.80;;;29.17;;
2712;SDS011;1366;47.988;7.856;2023-01-23T09:32:22;48.63;;;36.97;;
2712;SDS011;1366;47.988;7.856;2023-01-23T09:34:48;4.50;;;4.07;;
2712;SDS011;1366;47.988;7.856;2023-01-23T09:37:14;6.20;;;5.40;;
2712;SDS011;1366;47.988;7.856;2023-01-23T09:39:43;6.80;;;5.63;;
2712;SDS011;1366;47.988;7.856;2023-01-23T09:44:43;7.07;;;4.60;;
2712;SDS011;1366;47.988;7.856;2023-01-23T09:47:32;5.77;;;4.90;;
2712;SDS011;1366;47.988;7.856;2023-01-23T09:50:04;4.33;;;3.93;;
2712;SDS011;1366;47.988;7.856;2023-01-23T09:52:34;5.10;;;4.70;;
2712;SDS011;1366;47.988;7.856;2023-01-23T09:57:53;5.13;;;4.43;;
2712;SDS011;1366;47.988;7.856;2023-01-23T10:00:27;6.53;;;5.90;;
2712;SDS011;1366;47.988;7.856;2023-01-23T10:02:57;5.50;;;4.30;;
2712;SDS011;1366;47.988;7.856;2023-01-23T10:05:29;6.13;;;4.60;;
2712;SDS011;1366;47.988;7.856;2023-01-23T10:13:06;8.47;;;5.57;;
2712;SDS011;1366;47.988;7.856;2023-01-23T10:18:22;6.13;;;5.53;;
2712;SDS011;1366;47.988;7.856;2023-01-23T10:20:50;6.10;;;5.57;;
2712;SDS011;1366;47.988;7.856;2023-01-23T10:25:48;6.40;;;5.17;;
2712;SDS011;1366;47.988;7.856;2023-01-23T10:30:40;7.17;;;5.83;;
2712;SDS011;1366;47.988;7.856;2023-01-23T10:33:14;7.60;;;5.83;;
2712;SDS011;1366;47.988;7.856;2023-01-23T10:35:57;74.67;;;43.93;;
2712;SDS011;1366;47.988;7.856;2023-01-23T10:40:52;6.50;;;5.23;;
2712;SDS011;1366;47.988;7.856;2023-01-23T10:43:37;12.80;;;9.70;;
2712;SDS011;1366;47.988;7.856;2023-01-23T10:46:12;10.13;;;5.40;;
2712;SDS011;1366;47.988;7.856;2023-01-23T10:48:39;7.70;;;5.10;;
2712;SDS011;1366;47.988;7.856;2023-01-23T10:56:46;9.07;;;7.03;;
2712;SDS011;1366;47.988;7.856;2023-01-23T10:59:18;34.47;;;26.00;;
2712;SDS011;1366;47.988;7.856;2023-01-23T11:01:53;11.23;;;6.90;;
2712;SDS011;1366;47.988;7.856;2023-01-23T11:04:20;186.57;;;66.73;;
2712;SDS011;1366;47.988;7.856;2023-01-23T11:07:01;227.30;;;69.63;;
2712;SDS011;1366;47.988;7.856;2023-01-23T11:09:28;11.83;;;7.57;;
2712;SDS011;1366;47.988;7.856;2023-01-23T11:12:02;16.47;;;9.03;;
2712;SDS011;1366;47.988;7.856;2023-01-23T11:14:28;71.80;;;39.93;;
2712;SDS011;1366;47.988;7.856;2023-01-23T11:17:02;89.10;;;46.43;;
2712;SDS011;1366;47.988;7.856;2023-01-23T11:19:29;11.43;;;6.97;;
2712;SDS011;1366;47.988;7.856;2023-01-23T11:21:57;135.03;;;53.93;;
2712;SDS011;1366;47.988;7.856;2023-01-23T11:27:34;88.37;;;48.07;;
2712;SDS011;1366;47.988;7.856;2023-01-23T11:32:28;64.53;;;41.07;;
2712;SDS011;1366;47.988;7.856;2023-01-23T11:35:02;66.13;;;42.10;;
2712;SDS011;1366;47.988;7.856;2023-01-23T11:37:31;24.53;;;22.23;;
2712;SDS011;1366;47.988;7.856;2023-01-23T11:40:02;76.40;;;44.63;;
2712;SDS011;1366;47.988;7.856;2023-01-23T11:42:30;42.93;;;37.93;;
2712;SDS011;1366;47.988;7.856;2023-01-23T11:44:59;13.33;;;9.07;;
2712;SDS011;1366;47.988;7.856;2023-01-23T11:52:46;28.47;;;25.63;;
2712;SDS011;1366;47.988;7.856;2023-01-23T12:05:39;15.70;;;9.03;;
2712;SDS011;1366;47.988;7.856;2023-01-23T12:13:23;23.47;;;12.40;;
2712;SDS011;1366;47.988;7.856;2023-01-23T12:18:35;12.83;;;7.40;;
2712;SDS011;1366;47.988;7.856;2023-01-23T12:21:38;19.43;;;17.70;;
2712;SDS011;1366;47.988;7.856;2023-01-23T12:24:20;75.63;;;44.00;;
2712;SDS011;1366;47.988;7.856;2023-01-23T12:29:28;22.00;;;19.87;;
2712;SDS011;1366;47.988;7.856;2023-01-23T12:32:06;46.10;;;35.97;;
2712;SDS011;1366;47.988;7.856;2023-01-23T12:37:20;99.97;;;46.57;;
2712;SDS011;1366;47.988;7.856;2023-01-23T12:44:57;43.53;;;34.40;;
2712;SDS011;1366;47.988;7.856;2023-01-23T12:47:24;176.97;;;71.00;;
2712;SDS011;1366;47.988;7.856;2023-01-23T12:50:10;120.83;;;52.77;;
2712;SDS011;1366;47.988;7.856;2023-01-23T12:52:41;98.47;;;53.47;;
2712;SDS011;1366;47.988;7.856;2023-01-23T12:57:49;99.60;;;49.23;;
2712;SDS011;1366;47.988;7.856;2023-01-23T13:02:50;47.13;;;37.70;;
2712;SDS011;1366;47.988;7.856;2023-01-23T13:05:20;58.90;;;42.80;;
2712;SDS011;1366;47.988;7.856;2023-01-23T13:10:28;71.20;;;47.07;;
2712;SDS011;1366;47.988;7.856;2023-01-23T13:13:16;43.93;;;39.27;;
2712;SDS011;1366;47.988;7.856;2023-01-23T13:15:43;23.77;;;19.43;;
2712;SDS011;1366;47.988;7.856;2023-01-23T13:18:24;80.50;;;47.43;;
2712;SDS011;1366;47.988;7.856;2023-01-23T13:20:58;98.17;;;51.50;;
2712;SDS011;1366;47.988;7.856;2023-01-23T13:23:43;156.10;;;62.87;;
2712;SDS011;1366;47.988;7.856;2023-01-23T13:28:39;161.17;;;68.20;;
2712;SDS011;1366;47.988;7.856;2023-01-23T13:31:05;106.27;;;61.73;;
2712;SDS011;1366;47.988;7.856;2023-01-23T13:33:47;66.03;;;51.83;;
2712;SDS011;1366;47.988;7.856;2023-01-23T13:41:51;151.90;;;89.47;;
2712;SDS011;1366;47.988;7.856;2023-01-23T13:45:12;195.37;;;97.37;;
2712;SDS011;1366;47.988;7.856;2023-01-23T13:47:25;227.93;;;111.70;;
2712;SDS011;1366;47.988;7.856;2023-01-23T13:50:27;289.47;;;113.97;;
2712;SDS011;1366;47.988;7.856;2023-01-23T13:52:56;357.77;;;118.33;;
2712;SDS011;1366;47.988;7.856;2023-01-23T13:55:43;368.50;;;114.23;;
2712;SDS011;1366;47.988;7.856;2023-01-23T13:58:28;342.53;;;104.83;;
2712;SDS011;1366;47.988;7.856;2023-01-23T14:01:05;314.27;;;101.73;;
2712;SDS011;1366;47.988;7.856;2023-01-23T14:03:53;354.37;;;104.37;;
2712;SDS011;1366;47.988;7.856;2023-01-23T14:06:39;325.80;;;100.10;;
2712;SDS011;1366;47.988;7.856;2023-01-23T14:09:24;340.77;;;103.03;;
2712;SDS011;1366;47.988;7.856;2023-01-23T14:14:23;286.37;;;90.67;;
2712;SDS011;1366;47.988;7.856;2023-01-23T14:17:08;340.97;;;96.57;;
2712;SDS011;1366;47.988;7.856;2023-01-23T14:19:37;299.00;;;92.70;;
2712;SDS011;1366;47.988;7.856;2023-01-23T14:22:12;336.67;;;97.43;;
2712;SDS011;1366;47.988;7.856;2023-01-23T14:24:42;323.23;;;96.70;;
2712;SDS011;1366;47.988;7.856;2023-01-23T14:27:14;166.10;;;71.37;;
2712;SDS011;1366;47.988;7.856;2023-01-23T14:29:54;339.30;;;97.07;;
2712;SDS011;1366;47.988;7.856;2023-01-23T14:32:23;336.90;;;102.40;;
2712;SDS011;1366;47.988;7.856;2023-01-23T14:34:50;335.90;;;98.03;;
2712;SDS011;1366;47.988;7.856;2023-01-23T14:37:16;218.20;;;92.40;;
2712;SDS011;1366;47.988;7.856;2023-01-23T14:39:43;10.63;;;7.17;;
2712;SDS011;1366;47.988;7.856;2023-01-23T14:44:49;11.77;;;8.20;;
2712;SDS011;1366;47.988;7.856;2023-01-23T14:47:16;57.67;;;52.27;;
2712;SDS011;1366;47.988;7.856;2023-01-23T14:49:43;117.30;;;77.67;;
2712;SDS011;1366;47.988;7.856;2023-01-23T14:52:19;143.27;;;70.83;;
2712;SDS011;1366;47.988;7.856;2023-01-23T14:54:46;140.90;;;70.00;;
2712;SDS011;1366;47.988;7.856;2023-01-23T14:57:12;69.70;;;61.27;;
2712;SDS011;1366;47.988;7.856;2023-01-23T14:59:38;14.67;;;13.17;;
2712;SDS011;1366;47.988;7.856;2023-01-23T15:05:15;11.80;;;7.60;;
2712;SDS011;1366;47.988;7.856;2023-01-23T15:12:46;11.80;;;7.20;;
2712;SDS011;1366;47.988;7.856;2023-01-23T15:15:14;11.07;;;8.03;;
2712;SDS011;1366;47.988;7.856;2023-01-23T15:17:43;11.70;;;7.20;;
2712;SDS011;1366;47.988;7.856;2023-01-23T15:22:51;14.23;;;9.00;;
2712;SDS011;1366;47.988;7.856;2023-01-23T15:27:52;10.20;;;7.00;;
2712;SDS011;1366;47.988;7.856;2023-01-23T15:32:54;11.67;;;7.10;;
2712;SDS011;1366;47.988;7.856;2023-01-23T15:35:20;12.37;;;7.90;;
2712;SDS011;1366;47.988;7.856;2023-01-23T15:37:47;10.20;;;7.50;;
2712;SDS011;1366;47.988;7.856;2023-01-23T15:40:16;9.47;;;7.57;;
2712;SDS011;1366;47.988;7.856;2023-01-23T15:42:50;11.83;;;8.57;;
2712;SDS011;1366;47.988;7.856;2023-01-23T15:45:25;9.13;;;7.40;;
2712;SDS011;1366;47.988;7.856;2023-01-23T15:47:51;12.33;;;8.27;;
2712;SDS011;1366;47.988;7.856;2023-01-23T15:50:17;12.70;;;7.93;;
2712;SDS011;1366;47.988;7.856;2023-01-23T15:55:10;12.67;;;8.67;;
2712;SDS011;1366;47.988;7.856;2023-01-23T15:57:36;12.13;;;8.57;;
2712;SDS011;1366;47.988;7.856;2023-01-23T16:00:12;14.93;;;12.27;;
2712;SDS011;1366;47.988;7.856;2023-01-23T16:02:38;89.53;;;46.10;;
2712;SDS011;1366;47.988;7.856;2023-01-23T16:05:05;18.90;;;16.90;;
2712;SDS011;1366;47.988;7.856;2023-01-23T16:09:58;13.43;;;9.03;;
2712;SDS011;1366;47.988;7.856;2023-01-23T16:12:26;124.47;;;69.23;;
2712;SDS011;1366;47.988;7.856;2023-01-23T16:14:52;12.93;;;8.87;;
2712;SDS011;1366;47.988;7.856;2023-01-23T16:17:18;54.03;;;48.53;;
2712;SDS011;1366;47.988;7.856;2023-01-23T16:19:44;13.80;;;9.20;;
2712;SDS011;1366;47.988;7.856;2023-01-23T16:22:12;23.83;;;21.83;;
2712;SDS011;1366;47.988;7.856;2023-01-23T16:24:39;29.63;;;27.20;;
2712;SDS011;1366;47.988;7.856;2023-01-23T16:27:08;26.13;;;23.93;;
2712;SDS011;1366;47.988;7.856;2023-01-23T16:29:38;14.20;;;8.97;;
2712;SDS011;1366;47.988;7.856;2023-01-23T16:32:04;29.37;;;26.87;;
2712;SDS011;1366;47.988;7.856;2023-01-23T16:34:30;47.10;;;42.13;;
2712;SDS011;1366;47.988;7.856;2023-01-23T16:36:57;16.77;;;13.67;;
2712;SDS011;1366;47.988;7.856;2023-01-23T16:39:25;13.60;;;10.57;;
2712;SDS011;1366;47.988;7.856;2023-01-23T16:41:52;26.17;;;21.80;;
2712;SDS011;1366;47.988;7.856;2023-01-23T16:44:19;14.13;;;9.37;;
2712;SDS011;1366;47.988;7.856;2023-01-23T16:46:46;16.40;;;10.53;;
2712;SDS011;1366;47.988;7.856;2023-01-23T16:49:12;17.27;;;10.90;;
2712;SDS011;1366;47.988;7.856;2023-01-23T16:51:39;19.60;;;11.10;;
2712;SDS011;1366;47.988;7.856;2023-01-23T16:54:07;15.50;;;10.17;;
2712;SDS011;1366;47.988;7.856;2023-01-23T16:56:37;15.00;;;10.13;;
2712;SDS011;1366;47.988;7.856;2023-01-23T16:59:04;17.90;;;10.43;;
2712;SDS011;1366;47.988;7.856;2023-01-23T17:01:30;16.53;;;10.37;;
2712;SDS011;1366;47.988;7.856;2023-01-23T17:03:59;21.37;;;12.23;;
2712;SDS011;1366;47.988;7.856;2023-01-23T17:06:27;108.40;;;67.53;;
2712;SDS011;1366;47.988;7.856;2023-01-23T17:08:53;14.20;;;9.20;;
2712;SDS011;1366;47.988;7.856;2023-01-23T17:11:25;14.90;;;10.00;;
2712;SDS011;1366;47.988;7.856;2023-01-23T17:14:00;16.73;;;10.20;;
2712;SDS011;1366;47.988;7.856;2023-01-23T17:16:27;30.00;;;27.10;;
2712;SDS011;1366;47.988;7.856;2023-01-23T17:18:54;24.23;;;21.90;;
2712;SDS011;1366;47.988;7.856;2023-01-23T17:21:30;40.17;;;36.13;;
2712;SDS011;1366;47.988;7.856;2023-01-23T17:23:57;86.87;;;55.57;;
2712;SDS011;1366;47.988;7.856;2023-01-23T17:26:23;162.03;;;75.30;;
2712;SDS011;1366;47.988;7.856;2023-01-23T17:28:49;88.70;;;60.33;;
2712;SDS011;1366;47.988;7.856;2023-01-23T17:31:22;106.00;;;61.20;;
2712;SDS011;1366;47.988;7.856;2023-01-23T17:33:48;17.77;;;13.37;;
2712;SDS011;1366;47.988;7.856;2023-01-23T17:36:16;16.77;;;11.90;;
2712;SDS011;1366;47.988;7.856;2023-01-23T17:38:42;22.67;;;20.43;;
2712;SDS011;1366;47.988;7.856;2023-01-23T17:41:15;42.60;;;38.33;;
2712;SDS011;1366;47.988;7.856;2023-01-23T17:43:41;124.77;;;64.83;;
2712;SDS011;1366;47.988;7.856;2023-01-23T17:46:12;128.63;;;63.83;;
2712;SDS011;1366;47.988;7.856;2023-01-23T17:48:43;137.30;;;71.40;;
2712;SDS011;1366;47.988;7.856;2023-01-23T17:51:19;214.73;;;91.70;;
2712;SDS011;1366;47.988;7.856;2023-01-23T17:53:45;104.53;;;60.63;;
2712;SDS011;1366;47.988;7.856;2023-01-23T17:56:11;105.37;;;65.70;;
2712;SDS011;1366;47.988;7.856;2023-01-23T17:58:38;114.47;;;66.13;;
2712;SDS011;1366;47.988;7.856;2023-01-23T18:01:04;199.03;;;88.30;;
2712;SDS011;1366;47.988;7.856;2023-01-23T18:03:35;202.97;;;84.80;;
2712;SDS011;1366;47.988;7.856;2023-01-23T18:06:01;129.27;;;66.30;;
2712;SDS011;1366;47.988;7.856;2023-01-23T18:08:28;298.87;;;97.97;;
2712;SDS011;1366;47.988;7.856;2023-01-23T18:10:54;131.50;;;94.03;;
2712;SDS011;1366;47.988;7.856;2023-01-23T18:16:17;103.57;;;63.03;;
2712;SDS011;1366;47.988;7.856;2023-01-23T18:18:43;178.07;;;112.57;;
2712;SDS011;1366;47.988;7.856;2023-01-23T18:21:16;145.23;;;77.47;;
2712;SDS011;1366;47.988;7.856;2023-01-23T18:23:43;56.07;;;50.10;;
2712;SDS011;1366;47.988;7.856;2023-01-23T18:28:45;70.40;;;63.20;;
2712;SDS011;1366;47.988;7.856;2023-01-23T18:34:13;175.77;;;85.47;;
2712;SDS011;1366;47.988;7.856;2023-01-23T18:44:47;119.37;;;73.00;;
2712;SDS011;1366;47.988;7.856;2023-01-23T18:47:15;179.37;;;84.80;;
2712;SDS011;1366;47.988;7.856;2023-01-23T18:49:55;111.97;;;67.90;;
2712;SDS011;1366;47.988;7.856;2023-01-23T19:03:17;156.83;;;77.80;;
2712;SDS011;1366;47.988;7.856;2023-01-23T19:05:44;114.43;;;67.60;;
2712;SDS011;1366;47.988;7.856;2023-01-23T19:08:25;178.97;;;84.80;;
2712;SDS011;1366;47.988;7.856;2023-01-23T19:10:58;166.03;;;80.53;;
2712;SDS011;1366;47.988;7.856;2023-01-23T19:13:28;215.10;;;86.70;;
2712;SDS011;1366;47.988;7.856;2023-01-23T19:21:34;151.53;;;73.83;;
2712;SDS011;1366;47.988;7.856;2023-01-23T19:24:02;294.73;;;102.33;;
2712;SDS011;1366;47.988;7.856;2023-01-23T19:26:36;225.37;;;92.03;;
2712;SDS011;1366;47.988;7.856;2023-01-23T19:29:06;214.97;;;88.17;;
2712;SDS011;1366;47.988;7.856;2023-01-23T19:31:33;255.57;;;96.27;;
2712;SDS011;1366;47.988;7.856;2023-01-23T19:34:00;353.47;;;105.33;;
2712;SDS011;1366;47.988;7.856;2023-01-23T19:36:27;229.07;;;90.17;;
2712;SDS011;1366;47.988;7.856;2023-01-23T19:38:53;344.23;;;103.57;;
2712;SDS011;1366;47.988;7.856;2023-01-23T19:43:58;233.53;;;87.20;;
2712;SDS011;1366;47.988;7.856;2023-01-23T19:46:28;248.47;;;87.63;;
2712;SDS011;1366;47.988;7.856;2023-01-23T19:49:01;217.57;;;88.37;;
2712;SDS011;1366;47.988;7.856;2023-01-23T19:53:57;265.33;;;94.83;;
2712;SDS011;1366;47.988;7.856;2023-01-23T19:56:23;259.13;;;90.67;;
2712;SDS011;1366;47.988;7.856;2023-01-23T19:58:49;288.00;;;101.00;;
2712;SDS011;1366;47.988;7.856;2023-01-23T20:03:41;337.00;;;102.57;;
2712;SDS011;1366;47.988;7.856;2023-01-23T20:06:07;368.03;;;108.10;;
2712;SDS011;1366;47.988;7.856;2023-01-23T20:08:33;326.43;;;97.27;;
2712;SDS011;1366;47.988;7.856;2023-01-23T20:11:03;280.90;;;94.60;;
2712;SDS011;1366;47.988;7.856;2023-01-23T20:13:29;295.90;;;102.30;;
2712;SDS011;1366;47.988;7.856;2023-01-23T20:15:55;289.70;;;93.57;;
2712;SDS011;1366;47.988;7.856;2023-01-23T20:18:32;279.53;;;93.57;;
2712;SDS011;1366;47.988;7.856;2023-01-23T20:20:58;287.67;;;93.23;;
2712;SDS011;1366;47.988;7.856;2023-01-23T20:23:24;281.67;;;94.97;;
2712;SDS011;1366;47.988;7.856;2023-01-23T20:28:46;289.77;;;96.20;;
2712;SDS011;1366;47.988;7.856;2023-01-23T20:31:13;310.13;;;97.87;;
2712;SDS011;1366;47.988;7.856;2023-01-23T20:33:39;318.43;;;97.57;;
2712;SDS011;1366;47.988;7.856;2023-01-23T20:36:05;356.83;;;102.80;;
2712;SDS011;1366;47.988;7.856;2023-01-23T20:38:32;369.37;;;105.60;;
2712;SDS011;1366;47.988;7.856;2023-01-23T20:41:01;381.03;;;105.10;;
2712;SDS011;1366;47.988;7.856;2023-01-23T20:43:28;373.43;;;109.20;;
2712;SDS011;1366;47.988;7.856;2023-01-23T20:45:54;390.33;;;112.33;;
2712;SDS011;1366;47.988;7.856;2023-01-23T20:48:20;369.47;;;103.10;;
2712;SDS011;1366;47.988;7.856;2023-01-23T20:50:53;385.63;;;107.30;;
2712;SDS011;1366;47.988;7.856;2023-01-23T20:53:20;357.70;;;107.80;;
2712;SDS011;1366;47.988;7.856;2023-01-23T20:58:21;373.87;;;107.27;;
2712;SDS011;1366;47.988;7.856;2023-01-23T21:01:07;402.47;;;108.30;;
2712;SDS011;1366;47.988;7.856;2023-01-23T21:03:33;398.53;;;107.10;;
2712;SDS011;1366;47.988;7.856;2023-01-23T21:06:00;389.57;;;108.87;;
2712;SDS011;1366;47.988;7.856;2023-01-23T21:08:26;385.30;;;106.70;;
2712;SDS011;1366;47.988;7.856;2023-01-23T21:10:52;397.37;;;109.50;;
2712;SDS011;1366;47.988;7.856;2023-01-23T21:13:19;366.17;;;103.23;;
2712;SDS011;1366;47.988;7.856;2023-01-23T21:15:55;360.03;;;107.37;;
2712;SDS011;1366;47.988;7.856;2023-01-23T21:18:22;361.47;;;105.47;;
2712;SDS011;1366;47.988;7.856;2023-01-23T21:20:48;392.73;;;108.27;;
2712;SDS011;1366;47.988;7.856;2023-01-23T21:23:14;394.07;;;108.10;;
2712;SDS011;1366;47.988;7.856;2023-01-23T21:25:40;392.87;;;110.97;;
2712;SDS011;1366;47.988;7.856;2023-01-23T21:28:06;386.27;;;108.50;;
2712;SDS011;1366;47.988;7.856;2023-01-23T21:30:32;376.57;;;105.67;;
2712;SDS011;1366;47.988;7.856;2023-01-23T21:32:58;372.17;;;105.17;;
2712;SDS011;1366;47.988;7.856;2023-01-23T21:35:24;375.67;;;105.90;;
2712;SDS011;1366;47.988;7.856;2023-01-23T21:37:50;376.57;;;107.23;;
2712;SDS011;1366;47.988;7.856;2023-01-23T21:40:16;375.30;;;103.47;;
2712;SDS011;1366;47.988;7.856;2023-01-23T21:42:42;390.77;;;107.80;;
2712;SDS011;1366;47.988;7.856;2023-01-23T21:45:08;396.40;;;107.00;;
2712;SDS011;1366;47.988;7.856;2023-01-23T21:47:34;347.40;;;100.87;;
2712;SDS011;1366;47.988;7.856;2023-01-23T21:50:00;319.17;;;96.90;;
2712;SDS011;1366;47.988;7.856;2023-01-23T21:52:26;320.90;;;99.33;;
2712;SDS011;1366;47.988;7.856;2023-01-23T21:54:53;315.90;;;96.57;;
2712;SDS011;1366;47.988;7.856;2023-01-23T21:57:19;320.70;;;98.30;;
2712;SDS011;1366;47.988;7.856;2023-01-23T21:59:45;326.77;;;96.33;;
2712;SDS011;1366;47.988;7.856;2023-01-23T22:02:31;341.43;;;99.77;;
2712;SDS011;1366;47.988;7.856;2023-01-23T22:04:57;333.47;;;101.20;;
2712;SDS011;1366;47.988;7.856;2023-01-23T22:07:23;334.87;;;100.17;;
2712;SDS011;1366;47.988;7.856;2023-01-23T22:09:49;339.47;;;101.27;;
2712;SDS011;1366;47.988;7.856;2023-01-23T22:12:15;338.27;;;99.30;;
2712;SDS011;1366;47.988;7.856;2023-01-23T22:14:41;334.87;;;99.03;;
2712;SDS011;1366;47.988;7.856;2023-01-23T22:17:07;348.83;;;101.63;;
2712;SDS011;1366;47.988;7.856;2023-01-23T22:19:33;345.70;;;102.00;;
2712;SDS011;1366;47.988;7.856;2023-01-23T22:21:59;341.90;;;101.63;;
2712;SDS011;1366;47.988;7.856;2023-01-23T22:24:25;349.20;;;103.70;;
2712;SDS011;1366;47.988;7.856;2023-01-23T22:26:51;360.27;;;105.97;;
2712;SDS011;1366;47.988;7.856;2023-01-23T22:29:17;358.80;;;103.20;;
2712;SDS011;1366;47.988;7.856;2023-01-23T22:31:43;383.63;;;111.63;;
2712;SDS011;1366;47.988;7.856;2023-01-23T22:34:09;370.67;;;102.77;;